createdAt,value
2022-11-05T00:00:44.880Z,88.89
2022-11-05T00:03:29.667Z,89.19
2022-11-05T00:06:14.410Z,89.08
2022-11-05T00:09:00.254Z,89.19
2022-11-05T00:11:45.544Z,89.38
2022-11-05T00:14:30.918Z,89.51
2022-11-05T00:16:57.414Z,89.25
2022-11-05T00:19:23.723Z,89.09
2022-11-05T00:22:08.299Z,89.28
2022-11-05T00:24:53.097Z,89.29
2022-11-05T00:27:19.431Z,89.70
2022-11-05T00:29:45.776Z,89.52
2022-11-05T00:32:12.107Z,89.56
2022-11-05T00:34:38.429Z,89.21
2022-11-05T00:37:04.757Z,89.44
2022-11-05T00:39:31.103Z,89.22
2022-11-05T00:42:15.871Z,89.52
2022-11-05T00:45:00.670Z,89.28
2022-11-05T00:47:45.390Z,89.13
2022-11-05T00:50:11.808Z,89.63
2022-11-05T00:52:57.527Z,89.25
2022-11-05T00:55:35.226Z,89.45
2022-11-05T00:58:03.484Z,89.47
2022-11-05T01:00:32.511Z,89.36
2022-11-05T01:03:01.093Z,89.71
2022-11-05T01:05:31.655Z,89.50
2022-11-05T01:07:58.395Z,89.28
2022-11-05T01:10:25.754Z,89.39
2022-11-05T01:12:52.160Z,89.88
2022-11-05T01:15:19.947Z,89.56
2022-11-05T01:17:46.371Z,89.62
2022-11-05T01:20:16.374Z,89.74
2022-11-05T01:22:43.114Z,89.84
2022-11-05T01:25:10.123Z,89.98
2022-11-05T01:27:39.912Z,90.12
2022-11-05T01:30:08.064Z,89.67
2022-11-05T01:32:36.156Z,89.89
2022-11-05T01:35:06.848Z,89.68
2022-11-05T01:37:34.362Z,89.89
2022-11-05T01:40:01.440Z,89.64
2022-11-05T01:42:28.729Z,89.45
2022-11-05T01:45:12.690Z,89.73
2022-11-05T01:48:26.620Z,90.02
2022-11-05T01:51:01.286Z,90.02
2022-11-05T01:53:40.743Z,89.76
2022-11-05T01:56:12.367Z,89.93
2022-11-05T01:58:53.006Z,89.74
2022-11-05T02:01:19.730Z,90.15
2022-11-05T02:03:49.006Z,89.80
2022-11-05T02:06:17.414Z,89.88
2022-11-05T02:08:59.675Z,89.67
2022-11-05T02:11:26.662Z,89.66
2022-11-05T02:13:53.029Z,89.88
2022-11-05T02:16:37.896Z,89.66
2022-11-05T02:19:13.117Z,89.86
2022-11-05T02:22:04.574Z,89.53
2022-11-05T02:25:00.226Z,89.79
2022-11-05T02:27:44.979Z,89.62
2022-11-05T02:30:25.069Z,89.78
2022-11-05T02:33:14.481Z,89.32
2022-11-05T02:36:04.046Z,89.53
2022-11-05T02:39:12.246Z,89.37
2022-11-05T02:42:05.165Z,89.36
2022-11-05T02:44:39.542Z,89.52
2022-11-05T02:47:18.248Z,89.82
2022-11-05T02:50:05.893Z,89.34
2022-11-05T02:52:50.280Z,89.36
2022-11-05T02:55:39.968Z,89.51
2022-11-05T02:58:06.737Z,89.31
2022-11-05T03:00:40.876Z,89.60
2022-11-05T03:03:18.525Z,89.79
2022-11-05T03:06:22.325Z,89.85
2022-11-05T03:09:08.851Z,89.41
2022-11-05T03:11:50.245Z,89.42
2022-11-05T03:14:24.680Z,89.85
2022-11-05T03:17:21.046Z,89.38
2022-11-05T03:20:02.764Z,89.47
2022-11-05T03:22:36.687Z,89.08
2022-11-05T03:25:12.557Z,89.24
2022-11-05T03:27:43.965Z,89.48
2022-11-05T03:30:12.736Z,89.21
2022-11-05T03:32:41.754Z,89.32
2022-11-05T03:35:20.995Z,89.58
2022-11-05T03:37:50.984Z,89.55
2022-11-05T03:40:19.614Z,89.51
2022-11-05T03:42:49.202Z,89.17
2022-11-05T03:45:20.159Z,89.31
2022-11-05T03:47:50.330Z,89.01
2022-11-05T03:50:54.375Z,89.20
2022-11-05T03:53:25.891Z,88.76
2022-11-05T03:56:03.275Z,88.99
2022-11-05T03:58:31.371Z,89.00
2022-11-05T04:01:02.093Z,88.72
2022-11-05T04:03:36.031Z,88.74
2022-11-05T04:06:24.143Z,88.78
2022-11-05T04:09:09.324Z,88.91
2022-11-05T04:11:54.656Z,88.84
2022-11-05T04:14:20.992Z,88.79
2022-11-05T04:17:05.788Z,89.22
2022-11-05T04:19:54.356Z,89.30
2022-11-05T04:22:40.015Z,89.13
2022-11-05T04:25:06.680Z,89.14
2022-11-05T04:27:33.035Z,89.55
2022-11-05T04:30:17.568Z,89.57
2022-11-05T04:33:04.636Z,89.26
2022-11-05T04:35:33.887Z,89.60
2022-11-05T04:38:00.583Z,89.58
2022-11-05T04:40:27.018Z,89.69
2022-11-05T04:42:55.134Z,89.37
2022-11-05T04:45:26.592Z,89.68
2022-11-05T04:47:53.319Z,89.70
2022-11-05T04:50:19.699Z,89.54
2022-11-05T04:52:47.753Z,89.98
2022-11-05T04:55:14.144Z,89.80
2022-11-05T04:57:40.583Z,89.83
2022-11-05T05:00:08.144Z,89.75
2022-11-05T05:02:35.827Z,89.79
2022-11-05T05:05:02.309Z,89.94
2022-11-05T05:07:28.728Z,89.81
2022-11-05T05:09:55.210Z,89.47
2022-11-05T05:12:22.275Z,89.69
2022-11-05T05:14:51.553Z,89.94
2022-11-05T05:17:17.942Z,90.01
2022-11-05T05:20:03.977Z,89.75
2022-11-05T05:22:30.391Z,89.73
2022-11-05T05:24:56.778Z,89.96
2022-11-05T05:27:24.042Z,89.88
2022-11-05T05:29:50.551Z,89.87
2022-11-05T05:32:16.878Z,89.68
2022-11-05T05:34:43.202Z,89.82
2022-11-05T05:37:12.239Z,89.90
2022-11-05T05:39:38.589Z,89.96
2022-11-05T05:42:05.015Z,89.93
2022-11-05T05:44:31.357Z,89.99
2022-11-05T05:46:57.710Z,90.11
2022-11-05T05:49:24.195Z,89.94
2022-11-05T05:51:50.587Z,90.14
2022-11-05T05:54:17.119Z,90.12
2022-11-05T05:56:44.252Z,90.25
2022-11-05T05:59:10.959Z,89.94
2022-11-05T06:01:37.591Z,89.89
2022-11-05T06:04:04.354Z,90.07
2022-11-05T06:06:30.722Z,90.40
2022-11-05T06:08:59.829Z,90.69
2022-11-05T06:11:26.282Z,90.57
2022-11-05T06:13:52.615Z,90.41
2022-11-05T06:16:21.864Z,90.75
2022-11-05T06:18:48.302Z,90.68
2022-11-05T06:21:16.980Z,90.83
2022-11-05T06:23:44.807Z,90.88
2022-11-05T06:26:16.550Z,91.00
2022-11-05T06:28:43.271Z,91.24
2022-11-05T06:31:10.684Z,90.90
2022-11-05T06:33:37.170Z,90.96
2022-11-05T06:36:05.393Z,91.19
2022-11-05T06:38:33.788Z,91.03
2022-11-05T06:41:03.313Z,91.31
2022-11-05T06:43:32.075Z,90.77
2022-11-05T06:46:01.646Z,91.03
2022-11-05T06:48:28.840Z,91.07
2022-11-05T06:50:55.314Z,90.86
2022-11-05T06:53:22.062Z,90.89
2022-11-05T06:55:48.437Z,91.15
2022-11-05T06:58:15.442Z,90.76
2022-11-05T07:00:42.050Z,90.91
2022-11-05T07:03:14.709Z,90.52
2022-11-05T07:05:48.913Z,90.45
2022-11-05T07:08:15.935Z,90.39
2022-11-05T07:10:42.329Z,90.60
2022-11-05T07:13:09.175Z,90.67
2022-11-05T07:15:36.606Z,90.32
2022-11-05T07:18:04.014Z,90.87
2022-11-05T07:20:33.764Z,90.89
2022-11-05T07:23:06.288Z,90.65
2022-11-05T07:25:33.864Z,90.83
2022-11-05T07:28:00.668Z,90.73
2022-11-05T07:30:27.945Z,90.45
2022-11-05T07:32:54.562Z,90.87
2022-11-05T07:35:23.261Z,90.60
2022-11-05T07:37:51.670Z,90.79
2022-11-05T07:40:21.876Z,90.45
2022-11-05T07:42:50.552Z,90.50
2022-11-05T07:45:17.491Z,91.08
2022-11-05T07:47:52.113Z,90.87
2022-11-05T07:50:20.136Z,90.62
2022-11-05T07:52:48.030Z,90.59
2022-11-05T07:55:15.102Z,90.59
2022-11-05T07:57:50.239Z,90.59
2022-11-05T08:00:24.056Z,90.63
2022-11-05T08:03:07.233Z,90.40
2022-11-05T08:05:39.279Z,90.36
2022-11-05T08:08:07.909Z,90.24
2022-11-05T08:10:34.928Z,90.44
2022-11-05T08:13:01.776Z,90.22
2022-11-05T08:15:28.758Z,90.38
2022-11-05T08:18:03.396Z,89.80
2022-11-05T08:20:29.923Z,89.87
2022-11-05T08:22:56.975Z,90.05
2022-11-05T08:25:24.284Z,89.39
2022-11-05T08:28:05.253Z,89.89
2022-11-05T08:30:32.101Z,90.01
2022-11-05T08:33:03.992Z,89.95
2022-11-05T08:35:30.478Z,89.98
2022-11-05T08:37:58.388Z,89.55
2022-11-05T08:40:26.036Z,89.96
2022-11-05T08:42:53.003Z,90.15
2022-11-05T08:45:19.380Z,89.92
2022-11-05T08:47:46.175Z,90.12
2022-11-05T08:50:12.535Z,90.41
2022-11-05T08:52:42.113Z,89.99
2022-11-05T08:55:09.008Z,90.41
2022-11-05T08:57:35.350Z,91.17
2022-11-05T09:00:01.692Z,91.70
2022-11-05T09:02:28.079Z,91.11
2022-11-05T09:04:57.561Z,89.17
2022-11-05T09:07:24.153Z,87.98
2022-11-05T09:09:50.515Z,85.99
2022-11-05T09:12:17.171Z,84.30
2022-11-05T09:14:43.774Z,78.14
2022-11-05T09:17:20.089Z,75.47
2022-11-05T09:19:47.256Z,73.59
2022-11-05T09:22:14.209Z,70.36
2022-11-05T09:24:41.548Z,67.14
2022-11-05T09:27:13.175Z,65.32
2022-11-05T09:29:40.082Z,65.57
2022-11-05T09:32:06.849Z,66.14
2022-11-05T09:34:33.295Z,66.72
2022-11-05T09:36:59.737Z,66.36
2022-11-05T09:39:26.163Z,67.86
2022-11-05T09:41:54.989Z,68.81
2022-11-05T09:44:37.236Z,70.59
2022-11-05T09:47:11.202Z,69.90
2022-11-05T09:49:50.874Z,67.72
2022-11-05T09:52:29.443Z,68.64
2022-11-05T09:54:57.688Z,67.84
2022-11-05T09:57:28.811Z,65.12
2022-11-05T09:59:58.849Z,62.51
2022-11-05T10:02:27.776Z,60.80
2022-11-05T10:04:58.263Z,59.83
2022-11-05T10:07:28.074Z,59.98
2022-11-05T10:10:05.813Z,59.93
2022-11-05T10:12:41.933Z,60.30
2022-11-05T10:15:41.134Z,61.21
2022-11-05T10:18:16.683Z,62.44
2022-11-05T10:20:44.579Z,62.88
2022-11-05T10:23:13.384Z,63.86
2022-11-05T10:25:55.031Z,64.57
2022-11-05T10:28:24.588Z,65.39
2022-11-05T10:30:56.452Z,66.02
2022-11-05T10:33:28.716Z,66.49
2022-11-05T10:36:03.493Z,67.18
2022-11-05T10:38:30.388Z,67.78
2022-11-05T10:41:23.429Z,68.65
2022-11-05T10:43:52.218Z,68.87
2022-11-05T10:46:32.368Z,70.30
2022-11-05T10:49:20.349Z,70.57
2022-11-05T10:51:52.454Z,70.77
2022-11-05T10:54:22.485Z,71.63
2022-11-05T10:56:49.145Z,72.03
2022-11-05T10:59:29.993Z,72.71
2022-11-05T11:02:24.622Z,73.31
2022-11-05T11:04:52.739Z,73.80
2022-11-05T11:07:24.689Z,74.11
2022-11-05T11:09:51.431Z,74.34
2022-11-05T11:12:24.507Z,74.30
2022-11-05T11:15:21.663Z,74.86
2022-11-05T11:17:48.079Z,74.07
2022-11-05T11:20:27.657Z,73.92
2022-11-05T11:23:14.310Z,73.19
2022-11-05T11:25:50.669Z,71.97
2022-11-05T11:28:27.459Z,71.88
2022-11-05T11:31:20.928Z,71.38
2022-11-05T11:33:51.759Z,70.94
2022-11-05T11:36:24.206Z,70.91
2022-11-05T11:38:50.785Z,70.67
2022-11-05T11:41:24.615Z,70.49
2022-11-05T11:44:00.947Z,70.88
2022-11-05T11:46:32.281Z,71.06
2022-11-05T11:48:59.852Z,71.49
2022-11-05T11:51:36.765Z,71.40
2022-11-05T11:54:04.882Z,71.34
2022-11-05T11:56:44.523Z,71.98
2022-11-05T11:59:46.688Z,72.18
2022-11-05T12:02:14.873Z,72.04
2022-11-05T12:05:02.134Z,71.97
2022-11-05T12:07:43.192Z,72.03
2022-11-05T12:10:23.487Z,71.55
2022-11-05T12:13:08.969Z,71.57
2022-11-05T12:15:49.477Z,70.70
2022-11-05T12:18:40.630Z,70.31
2022-11-05T12:21:52.639Z,69.50
2022-11-05T12:24:32.257Z,68.12
2022-11-05T12:27:24.528Z,63.06
2022-11-05T12:30:12.687Z,61.74
2022-11-05T12:32:54.228Z,61.95
2022-11-05T12:35:47.417Z,62.49
2022-11-05T12:38:30.184Z,62.81
2022-11-05T12:40:59.569Z,63.60
2022-11-05T13:01:34.833Z,66.39
2022-11-05T13:04:08.748Z,66.86
2022-11-05T13:06:41.794Z,66.89
2022-11-05T13:09:08.095Z,66.77
2022-11-05T13:12:11.143Z,67.15
2022-11-05T13:15:06.977Z,67.77
2022-11-05T13:17:47.661Z,68.16
2022-11-05T13:20:21.801Z,68.20
2022-11-05T13:23:25.986Z,68.13
2022-11-05T13:26:19.811Z,68.35
2022-11-05T13:29:11.666Z,68.21
2022-11-05T13:31:43.630Z,68.47
2022-11-05T13:34:11.379Z,68.36
2022-11-05T13:37:17.766Z,67.99
2022-11-05T13:39:52.293Z,68.18
2022-11-05T13:42:55.942Z,68.33
2022-11-05T13:45:34.474Z,68.92
2022-11-05T13:48:22.713Z,69.17
2022-11-05T13:51:14.078Z,69.54
2022-11-05T13:54:05.409Z,69.77
2022-11-05T13:56:40.999Z,69.87
2022-11-05T13:59:22.697Z,70.07
2022-11-05T14:02:04.987Z,69.96
2022-11-05T14:04:35.700Z,69.88
2022-11-05T14:07:18.568Z,69.82
2022-11-05T14:09:45.845Z,70.11
2022-11-05T14:12:26.766Z,70.23
2022-11-05T14:15:02.057Z,70.50
2022-11-05T14:17:33.672Z,70.54
2022-11-05T14:20:03.733Z,70.87
2022-11-05T14:22:33.130Z,71.26
2022-11-05T14:25:00.822Z,71.00
2022-11-05T14:27:36.542Z,71.25
2022-11-05T14:30:42.148Z,71.20
2022-11-05T14:33:25.095Z,71.45
2022-11-05T14:35:53.406Z,72.00
2022-11-05T14:38:25.982Z,71.77
2022-11-05T14:41:01.172Z,71.79
2022-11-05T14:43:33.131Z,71.76
2022-11-05T14:46:00.734Z,71.96
2022-11-05T14:48:40.177Z,72.13
2022-11-05T14:51:35.273Z,72.40
2022-11-05T14:54:29.458Z,72.74
2022-11-05T14:56:58.705Z,72.91
2022-11-05T14:59:25.027Z,72.97
2022-11-05T15:01:56.600Z,73.00
2022-11-05T15:04:27.217Z,73.01
2022-11-05T15:07:02.989Z,72.82
2022-11-05T15:09:46.594Z,72.86
2022-11-05T15:12:24.464Z,72.98
2022-11-05T15:15:21.889Z,73.06
2022-11-05T15:17:58.239Z,73.03
2022-11-05T15:20:40.237Z,73.04
2022-11-05T15:23:12.501Z,73.29
2022-11-05T15:26:06.391Z,73.40
2022-11-05T15:28:37.542Z,73.38
2022-11-05T15:31:30.437Z,73.41
2022-11-05T15:34:16.715Z,73.25
2022-11-05T15:36:59.374Z,73.52
2022-11-05T15:39:32.571Z,73.73
2022-11-05T15:42:06.962Z,73.97
2022-11-05T15:44:39.107Z,73.57
2022-11-05T15:47:06.685Z,73.56
2022-11-05T15:49:33.290Z,73.69
2022-11-05T15:51:59.655Z,74.45
2022-11-05T15:54:30.506Z,74.49
2022-11-05T15:56:59.380Z,74.60
2022-11-05T15:59:28.674Z,75.31
2022-11-05T16:02:13.533Z,75.57
2022-11-05T16:04:40.269Z,75.89
2022-11-05T16:07:09.714Z,75.97
2022-11-05T16:09:41.008Z,76.56
2022-11-05T16:12:24.000Z,76.41
2022-11-05T16:15:00.822Z,76.65
2022-11-05T16:17:31.151Z,76.69
2022-11-05T16:19:57.925Z,76.93
2022-11-05T16:22:24.656Z,77.08
2022-11-05T16:24:51.035Z,77.42
2022-11-05T16:27:21.974Z,78.12
2022-11-05T16:29:55.013Z,78.63
2022-11-05T16:32:30.663Z,78.69
2022-11-05T16:35:00.684Z,78.51
2022-11-05T16:37:32.465Z,79.10
2022-11-05T16:39:58.926Z,79.08
2022-11-05T16:42:34.383Z,79.21
2022-11-05T16:45:05.120Z,79.31
2022-11-05T16:47:31.603Z,79.65
2022-11-05T16:49:58.382Z,79.77
2022-11-05T16:52:25.070Z,80.14
2022-11-05T16:54:51.374Z,79.95
2022-11-05T16:57:25.591Z,80.27
2022-11-05T16:59:52.801Z,80.22
2022-11-05T17:02:19.703Z,80.51
2022-11-05T17:04:47.197Z,80.74
2022-11-05T17:07:13.626Z,80.49
2022-11-05T17:09:39.990Z,80.61
2022-11-05T17:12:06.450Z,80.56
2022-11-05T17:14:32.880Z,80.54
2022-11-05T17:17:02.935Z,80.52
2022-11-05T17:19:29.303Z,80.81
2022-11-05T17:21:55.916Z,80.54
2022-11-05T17:24:22.257Z,80.73
2022-11-05T17:26:48.778Z,81.07
2022-11-05T17:29:15.516Z,81.05
2022-11-05T17:31:42.429Z,81.33
2022-11-05T17:34:09.699Z,81.12
2022-11-05T17:36:36.097Z,81.26
2022-11-05T17:39:02.559Z,81.27
2022-11-05T17:41:28.886Z,81.39
2022-11-05T17:43:57.548Z,81.61
2022-11-05T17:46:24.813Z,81.97
2022-11-05T17:48:51.373Z,81.99
2022-11-05T17:51:19.289Z,81.85
2022-11-05T17:53:48.357Z,82.13
2022-11-05T17:56:27.256Z,82.04
2022-11-05T17:59:00.459Z,81.79
2022-11-05T18:01:30.000Z,81.98
2022-11-05T18:03:57.223Z,82.53
2022-11-05T18:06:23.656Z,82.85
2022-11-05T18:08:50.197Z,83.31
2022-11-05T18:11:17.091Z,83.32
2022-11-05T18:13:43.459Z,83.56
2022-11-05T18:16:10.109Z,83.94
2022-11-05T18:18:36.552Z,84.66
2022-11-05T18:21:03.250Z,84.71
2022-11-05T18:23:29.686Z,84.83
2022-11-05T18:25:56.122Z,84.74
2022-11-05T18:28:22.579Z,85.08
2022-11-05T18:30:51.371Z,85.37
2022-11-05T18:33:20.343Z,85.59
2022-11-05T18:35:46.713Z,85.82
2022-11-05T18:38:13.165Z,85.39
2022-11-05T18:40:39.688Z,85.69
2022-11-05T18:43:06.144Z,85.59
2022-11-05T18:45:33.328Z,85.48
2022-11-05T18:48:03.092Z,85.52
2022-11-05T18:50:29.461Z,85.69
2022-11-05T18:52:56.523Z,85.73
2022-11-05T18:55:24.307Z,86.02
2022-11-05T18:57:50.653Z,85.92
2022-11-05T19:00:17.163Z,86.17
2022-11-05T19:02:43.615Z,85.92
2022-11-05T19:07:56.589Z,86.05
2022-11-05T19:10:22.929Z,86.04
2022-11-05T19:12:49.441Z,85.87
2022-11-05T19:15:18.575Z,85.74
2022-11-05T19:17:44.980Z,85.92
2022-11-05T19:20:12.236Z,85.73
2022-11-05T19:22:38.752Z,85.60
2022-11-05T19:25:05.911Z,85.88
2022-11-05T19:27:32.239Z,85.70
2022-11-05T19:29:58.580Z,85.72
2022-11-05T19:32:25.046Z,85.42
2022-11-05T19:34:51.384Z,85.33
2022-11-05T19:37:20.893Z,85.27
2022-11-05T19:39:47.214Z,85.35
2022-11-05T19:42:13.701Z,85.22
2022-11-05T19:44:40.737Z,85.21
2022-11-05T19:47:07.050Z,84.77
2022-11-05T19:49:33.475Z,84.95
2022-11-05T19:51:59.824Z,85.22
2022-11-05T19:54:26.211Z,85.05
2022-11-05T19:56:52.745Z,84.87
2022-11-05T19:59:19.191Z,84.93
2022-11-05T20:01:45.616Z,84.74
2022-11-05T20:04:12.203Z,84.66
2022-11-05T20:06:40.015Z,84.53
2022-11-05T20:09:27.100Z,84.76
2022-11-05T20:11:56.022Z,84.57
2022-11-05T20:14:23.879Z,84.41
2022-11-05T20:16:50.296Z,84.33
2022-11-05T20:19:21.661Z,84.33
2022-11-05T20:21:51.165Z,84.11
2022-11-05T20:24:24.377Z,84.15
2022-11-05T20:26:53.413Z,83.91
2022-11-05T20:29:20.202Z,84.05
2022-11-05T20:31:46.894Z,83.89
2022-11-05T20:34:13.234Z,84.08
2022-11-05T20:36:39.833Z,83.69
2022-11-05T20:39:06.225Z,83.85
2022-11-05T20:41:33.278Z,83.79
2022-11-05T20:43:59.667Z,84.13
2022-11-05T20:46:26.081Z,84.32
2022-11-05T20:48:53.945Z,84.04
2022-11-05T20:51:22.245Z,84.00
2022-11-05T20:53:49.000Z,84.12
2022-11-05T20:56:20.709Z,84.18
2022-11-05T20:58:47.326Z,84.17
2022-11-05T21:01:16.105Z,84.23
2022-11-05T21:03:43.514Z,84.08
2022-11-05T21:06:09.857Z,84.38
2022-11-05T21:08:36.665Z,84.47
2022-11-05T21:11:03.625Z,84.24
2022-11-05T21:13:30.368Z,84.35
2022-11-05T21:15:59.874Z,84.10
2022-11-05T21:18:28.989Z,84.29
2022-11-05T21:20:55.886Z,84.48
2022-11-05T21:23:22.202Z,84.25
2022-11-05T21:25:48.637Z,84.52
2022-11-05T21:28:15.644Z,84.55
2022-11-05T21:30:47.509Z,84.71
2022-11-05T21:33:15.490Z,84.71
2022-11-05T21:35:48.467Z,84.76
2022-11-05T21:38:16.594Z,85.03
2022-11-05T21:40:43.604Z,84.64
2022-11-05T21:43:10.385Z,84.95
2022-11-05T21:45:44.077Z,84.77
2022-11-05T21:48:11.861Z,84.94
2022-11-05T21:51:00.275Z,84.98
2022-11-05T21:53:45.540Z,85.23
2022-11-05T21:56:38.082Z,85.15
2022-11-05T21:59:28.441Z,85.20
2022-11-05T22:02:01.226Z,85.06
2022-11-05T22:04:32.993Z,85.20
2022-11-05T22:07:02.856Z,85.65
2022-11-05T22:09:29.240Z,85.54
2022-11-05T22:11:56.029Z,85.43
2022-11-05T22:14:26.384Z,85.20
2022-11-05T22:16:52.878Z,85.13
2022-11-05T22:19:20.147Z,85.30
2022-11-05T22:21:46.508Z,85.28
2022-11-05T22:24:12.843Z,85.42
2022-11-05T22:26:40.549Z,84.91
2022-11-05T22:29:08.234Z,85.10
2022-11-05T22:31:36.700Z,84.94
2022-11-05T22:34:04.277Z,85.16
2022-11-05T22:36:30.627Z,85.47
2022-11-05T22:38:57.274Z,85.00
2022-11-05T22:41:23.639Z,84.93
2022-11-05T22:43:50.157Z,85.10
2022-11-05T22:46:19.078Z,85.06
2022-11-05T22:48:46.089Z,85.04
2022-11-05T22:51:15.123Z,85.35
2022-11-05T22:53:42.522Z,84.94
2022-11-05T22:56:11.246Z,85.21
2022-11-05T22:58:38.029Z,85.15
2022-11-05T23:01:06.257Z,85.13
2022-11-05T23:03:33.275Z,85.55
2022-11-05T23:06:02.564Z,85.32
2022-11-05T23:08:47.892Z,85.59
2022-11-05T23:11:35.956Z,85.38
2022-11-05T23:14:03.027Z,85.43
2022-11-05T23:16:48.154Z,85.34
2022-11-05T23:19:33.064Z,85.30
2022-11-05T23:22:17.992Z,85.48
2022-11-05T23:24:44.400Z,85.14
2022-11-05T23:27:10.788Z,85.83
2022-11-05T23:29:37.138Z,85.51
2022-11-05T23:32:22.344Z,85.64
2022-11-05T23:34:48.648Z,85.58
2022-11-05T23:37:33.517Z,85.67
2022-11-05T23:39:59.872Z,85.67
2022-11-05T23:42:44.640Z,85.80
2022-11-05T23:45:29.913Z,85.67
2022-11-05T23:48:15.027Z,85.42
2022-11-05T23:50:44.231Z,85.78
2022-11-05T23:53:10.596Z,85.58
2022-11-05T23:55:37.514Z,85.95
2022-11-05T23:58:04.142Z,85.94
